Time;durP1;ratioP1;P1;durP2;ratioP2;P2;SDS_P1;SDS_P2;PMS_P1;PMS_P2;Temp;Humidity;BMP_temperature;BMP_pressure;BME280_temperature;BME280_humidity;BME280_pressure;Samples;Min_cycle;Max_cycle;Signal;HPM_P1;HPM_P2
2023/11/07 00:01:51;;;;;;;;;0.00;0.00;;;;;;;;6212721;22;45663;-91
2023/11/07 00:04:17;;;;;;;;;0.00;0.00;;;;;;;;6211325;22;46415;-90
2023/11/07 00:06:42;;;;;;;;;0.00;0.00;;;;;;;;6212142;22;45252;-90
2023/11/07 00:09:08;;;;;;;;;0.00;0.00;;;;;;;;6210782;22;45948;-90
2023/11/07 00:11:36;;;;;;;;;0.00;0.00;;;;;;;;6212096;22;45305;-89
2023/11/07 00:14:02;;;;;;;;;0.00;0.00;;;;;;;;6211563;22;47035;-92
2023/11/07 00:16:28;;;;;;;;;0.00;0.00;;;;;;;;6212895;22;45682;-91
2023/11/07 00:18:53;;;;;;;;;0.00;0.00;;;;;;;;6211734;22;45518;-91
2023/11/07 00:21:18;;;;;;;;;0.00;0.00;;;;;;;;6211968;22;45396;-90
2023/11/07 00:23:44;;;;;;;;;0.00;0.00;;;;;;;;6211757;22;45197;-89
2023/11/07 00:26:09;;;;;;;;;0.00;0.00;;;;;;;;6213177;22;45367;-90
2023/11/07 00:28:36;;;;;;;;;0.00;0.00;;;;;;;;6212093;22;45828;-90
2023/11/07 00:31:01;;;;;;;;;0.00;0.00;;;;;;;;6212070;22;45412;-90
2023/11/07 00:33:26;;;;;;;;;0.00;0.00;;;;;;;;6211890;22;46974;-90
2023/11/07 00:35:52;;;;;;;;;0.00;0.00;;;;;;;;6211922;22;45412;-91
2023/11/07 00:38:17;;;;;;;;;0.00;0.00;;;;;;;;6211893;22;45410;-90
2023/11/07 00:40:42;;;;;;;;;0.00;0.00;;;;;;;;6210556;22;45454;-90
2023/11/07 00:43:07;;;;;;;;;0.00;0.00;;;;;;;;6211873;22;45341;-90
2023/11/07 00:45:33;;;;;;;;;0.00;0.00;;;;;;;;6211636;22;45293;-91
2023/11/07 00:47:58;;;;;;;;;0.00;0.00;;;;;;;;6211787;22;45327;-90
2023/11/07 00:50:23;;;;;;;;;0.00;0.00;;;;;;;;6212158;22;45577;-91
2023/11/07 00:52:51;;;;;;;;;0.00;0.00;;;;;;;;6211076;22;48096;-90
2023/11/07 00:55:16;;;;;;;;;0.00;0.00;;;;;;;;6211015;22;45289;-91
2023/11/07 00:57:42;;;;;;;;;0.00;0.00;;;;;;;;6234883;22;45870;-90
2023/11/07 01:00:08;;;;;;;;;0.00;0.00;;;;;;;;6242478;22;45458;-91
2023/11/07 01:02:33;;;;;;;;;0.00;0.00;;;;;;;;6215865;22;47189;-91
2023/11/07 01:04:59;;;;;;;;;0.00;0.00;;;;;;;;6216058;22;45407;-91
2023/11/07 01:07:24;;;;;;;;;0.00;0.00;;;;;;;;6243377;22;45291;-91
2023/11/07 01:09:51;;;;;;;;;3.00;3.00;;;;;;;;6242948;22;45529;-91
2023/11/07 01:12:16;;;;;;;;;0.00;0.00;;;;;;;;6241231;22;46583;-87
2023/11/07 01:14:41;;;;;;;;;0.00;0.00;;;;;;;;6241578;22;45378;-89
2023/11/07 01:17:07;;;;;;;;;0.00;0.00;;;;;;;;6242095;22;45301;-91
2023/11/07 01:19:32;;;;;;;;;0.00;0.00;;;;;;;;6241935;22;45683;-90
2023/11/07 01:21:58;;;;;;;;;0.00;0.00;;;;;;;;6242306;22;45482;-90
2023/11/07 01:24:25;;;;;;;;;0.00;0.00;;;;;;;;6242412;22;45303;-91
2023/11/07 01:26:51;;;;;;;;;0.00;0.00;;;;;;;;6241987;22;45463;-91
2023/11/07 01:29:17;;;;;;;;;0.00;0.00;;;;;;;;6242600;22;45298;-92
2023/11/07 01:31:44;;;;;;;;;0.00;0.00;;;;;;;;6242081;22;45478;-91
2023/11/07 01:34:10;;;;;;;;;0.00;0.00;;;;;;;;6242528;22;45302;-90
2023/11/07 01:36:35;;;;;;;;;0.00;0.00;;;;;;;;6242214;22;45461;-91
2023/11/07 01:39:01;;;;;;;;;0.00;0.00;;;;;;;;6215396;22;45329;-89
2023/11/07 01:41:26;;;;;;;;;0.00;0.00;;;;;;;;6242252;22;46531;-90
2023/11/07 01:43:51;;;;;;;;;0.00;0.00;;;;;;;;6215827;22;45362;-90
2023/11/07 01:46:18;;;;;;;;;0.00;0.00;;;;;;;;6246062;22;45408;-90
2023/11/07 01:48:44;;;;;;;;;0.00;0.00;;;;;;;;6243185;22;45468;-90
2023/11/07 01:51:09;;;;;;;;;0.00;0.00;;;;;;;;6242560;22;45502;-90
2023/11/07 01:53:35;;;;;;;;;0.00;0.00;;;;;;;;6242968;22;45228;-89
2023/11/07 01:56:00;;;;;;;;;0.00;0.00;;;;;;;;6242040;22;45484;-89
2023/11/07 01:58:26;;;;;;;;;0.00;0.00;;;;;;;;6242586;22;45276;-90
2023/11/07 02:00:53;;;;;;;;;0.00;0.00;;;;;;;;6241985;22;46177;-91
2023/11/07 02:03:20;;;;;;;;;6.25;6.25;;;;;;;;6242507;22;45203;-90
2023/11/07 02:05:45;;;;;;;;;0.00;0.00;;;;;;;;6242027;22;45583;-90
2023/11/07 02:08:10;;;;;;;;;0.00;0.00;;;;;;;;6214691;22;45430;-89
2023/11/07 02:10:37;;;;;;;;;1.67;0.00;;;;;;;;6241840;22;45354;-91
2023/11/07 02:13:02;;;;;;;;;0.00;0.00;;;;;;;;6242388;22;45362;-90
2023/11/07 02:15:27;;;;;;;;;0.00;0.00;;;;;;;;6214565;22;45316;-90
2023/11/07 02:17:53;;;;;;;;;0.00;0.00;;;;;;;;6241742;22;45303;-90
2023/11/07 02:20:19;;;;;;;;;0.00;0.00;;;;;;;;6214329;22;48130;-90
2023/11/07 02:22:46;;;;;;;;;0.00;0.00;;;;;;;;6214732;22;45780;-89
2023/11/07 02:25:12;;;;;;;;;0.00;0.00;;;;;;;;6241356;22;45583;-90
2023/11/07 02:27:38;;;;;;;;;0.00;0.00;;;;;;;;6242272;22;45743;-91
2023/11/07 02:30:04;;;;;;;;;0.00;0.00;;;;;;;;6241297;22;45354;-90
2023/11/07 02:32:29;;;;;;;;;0.00;0.00;;;;;;;;6242456;22;45299;-89
2023/11/07 02:34:54;;;;;;;;;0.00;0.00;;;;;;;;6242381;22;45336;-90
2023/11/07 02:37:21;;;;;;;;;0.00;0.00;;;;;;;;6242738;22;45255;-90
2023/11/07 02:39:47;;;;;;;;;0.00;0.00;;;;;;;;6242752;22;45357;-90
2023/11/07 02:42:12;;;;;;;;;0.00;0.00;;;;;;;;6243106;22;45648;-89
2023/11/07 02:44:38;;;;;;;;;0.00;0.00;;;;;;;;6243278;22;45810;-90
2023/11/07 02:47:04;;;;;;;;;0.00;0.00;;;;;;;;6243337;22;45291;-93
2023/11/07 02:49:29;;;;;;;;;0.00;0.00;;;;;;;;6242422;22;45228;-89
2023/11/07 02:51:55;;;;;;;;;0.00;0.00;;;;;;;;6243888;22;45311;-90
2023/11/07 02:54:20;;;;;;;;;0.00;0.00;;;;;;;;6243490;22;45436;-89
2023/11/07 02:56:45;;;;;;;;;0.00;0.00;;;;;;;;6243255;22;45234;-89
2023/11/07 02:59:12;;;;;;;;;0.00;0.00;;;;;;;;6215503;22;46320;-90
2023/11/07 03:01:37;;;;;;;;;6.00;6.00;;;;;;;;6215904;22;45988;-89
2023/11/07 03:04:02;;;;;;;;;0.00;0.00;;;;;;;;6216306;22;45128;-90
2023/11/07 03:06:28;;;;;;;;;0.00;0.00;;;;;;;;6216677;22;45239;-91
2023/11/07 03:08:53;;;;;;;;;0.00;0.00;;;;;;;;6216513;22;47317;-90
2023/11/07 03:11:18;;;;;;;;;0.00;0.00;;;;;;;;6216531;22;45167;-89
2023/11/07 03:13:46;;;;;;;;;3.00;3.00;;;;;;;;6215637;22;45105;-90
2023/11/07 03:16:11;;;;;;;;;0.00;0.00;;;;;;;;6242563;22;45271;-89
2023/11/07 03:18:36;;;;;;;;;0.00;0.00;;;;;;;;6215742;22;48030;-90
2023/11/07 03:21:03;;;;;;;;;2.67;2.67;;;;;;;;6242190;22;45242;-88
2023/11/07 03:23:28;;;;;;;;;0.00;0.00;;;;;;;;6215868;22;45447;-89
2023/11/07 03:25:53;;;;;;;;;0.00;0.00;;;;;;;;6215584;22;45695;-90
2023/11/07 03:28:20;;;;;;;;;0.00;0.00;;;;;;;;6241960;22;46523;-89
2023/11/07 03:30:45;;;;;;;;;0.00;0.00;;;;;;;;6242214;22;45322;-88
2023/11/07 03:33:11;;;;;;;;;0.00;0.00;;;;;;;;6242365;22;45465;-91
2023/11/07 03:35:36;;;;;;;;;0.00;0.00;;;;;;;;6216103;22;45435;-88
2023/11/07 03:38:01;;;;;;;;;0.00;0.00;;;;;;;;6242465;22;46890;-89
2023/11/07 03:40:27;;;;;;;;;0.00;0.00;;;;;;;;6241934;22;45224;-89
2023/11/07 03:42:52;;;;;;;;;0.00;0.00;;;;;;;;6242374;22;45316;-89
2023/11/07 03:45:17;;;;;;;;;0.00;0.00;;;;;;;;6215853;22;45763;-89
2023/11/07 03:47:42;;;;;;;;;0.00;0.00;;;;;;;;6215323;22;46969;-89
2023/11/07 03:50:08;;;;;;;;;0.00;0.00;;;;;;;;6215077;22;45400;-89
2023/11/07 03:52:33;;;;;;;;;0.00;0.00;;;;;;;;6242345;22;45712;-88
2023/11/07 03:54:58;;;;;;;;;0.00;0.00;;;;;;;;6215352;22;45401;-89
2023/11/07 03:57:25;;;;;;;;;0.00;0.00;;;;;;;;6209546;22;47088;-89
2023/11/07 03:59:50;;;;;;;;;0.00;0.00;;;;;;;;6212016;22;45453;-89
2023/11/07 04:02:16;;;;;;;;;0.00;0.00;;;;;;;;6211979;22;45404;-89
2023/11/07 04:04:41;;;;;;;;;0.00;0.00;;;;;;;;6209050;22;45339;-89
2023/11/07 04:07:06;;;;;;;;;0.00;0.00;;;;;;;;6208211;22;47002;-89
2023/11/07 04:09:32;;;;;;;;;0.00;0.00;;;;;;;;6210382;22;45734;-89
2023/11/07 04:11:57;;;;;;;;;0.00;0.00;;;;;;;;6210620;22;45343;-89
2023/11/07 04:14:22;;;;;;;;;0.00;0.00;;;;;;;;6211760;22;45470;-89
2023/11/07 04:16:48;;;;;;;;;0.00;0.00;;;;;;;;6210580;22;47038;-88
2023/11/07 04:19:13;;;;;;;;;0.00;0.00;;;;;;;;6214804;22;45322;-89
2023/11/07 04:21:39;;;;;;;;;0.00;0.00;;;;;;;;6216580;22;45369;-89
2023/11/07 04:24:07;;;;;;;;;0.00;0.00;;;;;;;;6211369;22;45219;-89
2023/11/07 04:26:32;;;;;;;;;0.00;0.00;;;;;;;;6211566;22;45659;-89
2023/11/07 04:28:57;;;;;;;;;1.33;1.33;;;;;;;;6211930;22;45238;-90
2023/11/07 04:31:23;;;;;;;;;1.00;1.00;;;;;;;;6212320;22;45680;-90
2023/11/07 04:33:48;;;;;;;;;0.00;0.00;;;;;;;;6210875;22;45362;-90
2023/11/07 04:36:16;;;;;;;;;0.00;0.00;;;;;;;;6210098;22;48063;-89
2023/11/07 04:38:43;;;;;;;;;0.00;0.00;;;;;;;;6211174;22;45361;-89
2023/11/07 04:41:08;;;;;;;;;0.00;0.00;;;;;;;;6211633;22;45388;-89
2023/11/07 04:43:35;;;;;;;;;0.00;0.00;;;;;;;;6210126;22;45426;-88
2023/11/07 04:46:01;;;;;;;;;0.00;0.00;;;;;;;;6210044;22;47428;-91
2023/11/07 04:48:26;;;;;;;;;0.00;0.00;;;;;;;;6211619;22;45389;-89
2023/11/07 04:50:52;;;;;;;;;0.00;0.00;;;;;;;;6210435;22;45737;-89
2023/11/07 04:53:17;;;;;;;;;0.00;0.00;;;;;;;;6210781;22;45843;-88
2023/11/07 04:55:43;;;;;;;;;0.00;0.00;;;;;;;;6209309;22;48098;-88
2023/11/07 04:58:08;;;;;;;;;0.00;0.00;;;;;;;;6209450;22;45520;-87
2023/11/07 05:00:34;;;;;;;;;0.00;0.00;;;;;;;;6210681;22;45628;-89
2023/11/07 05:02:59;;;;;;;;;0.00;0.00;;;;;;;;6209357;22;45521;-89
2023/11/07 05:05:24;;;;;;;;;0.00;0.00;;;;;;;;6209752;22;48135;-90
2023/11/07 05:07:50;;;;;;;;;0.00;0.00;;;;;;;;6211275;22;45476;-89
2023/11/07 05:10:16;;;;;;;;;3.00;3.00;;;;;;;;6210235;22;45436;-88
2023/11/07 05:12:41;;;;;;;;;0.00;0.00;;;;;;;;6209952;22;45301;-88
2023/11/07 05:15:07;;;;;;;;;0.00;0.00;;;;;;;;6209491;22;47721;-88
2023/11/07 05:17:32;;;;;;;;;0.00;0.00;;;;;;;;6210389;22;45299;-88
2023/11/07 05:19:57;;;;;;;;;1.00;1.00;;;;;;;;6209656;22;45387;-88
2023/11/07 05:22:23;;;;;;;;;0.00;0.00;;;;;;;;6210002;22;45299;-89
2023/11/07 05:24:51;;;;;;;;;0.00;0.00;;;;;;;;6211055;22;46464;-88
2023/11/07 05:27:16;;;;;;;;;0.00;0.00;;;;;;;;6211671;22;45241;-91
2023/11/07 05:29:41;;;;;;;;;0.00;0.00;;;;;;;;6211589;22;45735;-90
2023/11/07 05:32:07;;;;;;;;;0.00;0.00;;;;;;;;6210776;22;45543;-90
2023/11/07 05:34:32;;;;;;;;;0.00;0.00;;;;;;;;6210423;22;47062;-90
2023/11/07 05:36:57;;;;;;;;;0.00;0.00;;;;;;;;6209674;22;45761;-89
2023/11/07 05:39:27;;;;;;;;;0.00;0.00;;;;;;;;6211541;22;45381;-90
2023/11/07 05:41:54;;;;;;;;;0.00;0.00;;;;;;;;6211740;22;45364;-90
2023/11/07 05:44:19;;;;;;;;;0.00;0.00;;;;;;;;6212119;22;45448;-89
2023/11/07 05:46:47;;;;;;;;;0.00;0.00;;;;;;;;6210273;22;45374;-90
2023/11/07 05:49:13;;;;;;;;;0.00;0.00;;;;;;;;6210441;22;45380;-90
2023/11/07 05:51:38;;;;;;;;;0.00;0.00;;;;;;;;6211037;22;45433;-88
2023/11/07 05:54:04;;;;;;;;;0.00;0.00;;;;;;;;6209917;22;48193;-90
2023/11/07 05:56:29;;;;;;;;;0.00;0.00;;;;;;;;6209143;22;45606;-89
2023/11/07 05:58:54;;;;;;;;;0.00;0.00;;;;;;;;6210627;22;45647;-89
2023/11/07 06:01:19;;;;;;;;;0.00;0.00;;;;;;;;6210046;22;45240;-89
2023/11/07 06:03:45;;;;;;;;;0.00;0.00;;;;;;;;6209667;22;47044;-89
2023/11/07 06:06:10;;;;;;;;;0.00;0.00;;;;;;;;6209252;22;45324;-92
2023/11/07 06:08:35;;;;;;;;;0.00;0.00;;;;;;;;6211346;22;45333;-90
2023/11/07 06:11:02;;;;;;;;;0.00;0.00;;;;;;;;6211068;22;45341;-91
2023/11/07 06:13:27;;;;;;;;;0.00;0.00;;;;;;;;6210927;22;45685;-90
2023/11/07 06:15:53;;;;;;;;;0.00;0.00;;;;;;;;6209900;22;45821;-90
2023/11/07 06:18:18;;;;;;;;;0.00;0.00;;;;;;;;6211350;22;45349;-89
2023/11/07 06:20:43;;;;;;;;;0.00;0.00;;;;;;;;6210248;22;45420;-89
2023/11/07 06:23:08;;;;;;;;;0.00;0.00;;;;;;;;6209950;22;48512;-89
2023/11/07 06:25:34;;;;;;;;;0.00;0.00;;;;;;;;6207809;22;45376;-89
2023/11/07 06:27:59;;;;;;;;;0.00;0.00;;;;;;;;6208010;22;45432;-89
2023/11/07 06:30:29;;;;;;;;;8.67;2.00;;;;;;;;6210659;22;45386;-89
2023/11/07 06:32:54;;;;;;;;;0.00;0.00;;;;;;;;6210768;22;46487;-90
2023/11/07 06:35:20;;;;;;;;;6.00;6.00;;;;;;;;6209220;22;45937;-89
2023/11/07 06:37:46;;;;;;;;;1.00;1.00;;;;;;;;6209888;22;45684;-88
2023/11/07 06:40:16;;;;;;;;;0.00;0.00;;;;;;;;6210718;22;45295;-89
2023/11/07 06:42:42;;;;;;;;;0.00;0.00;;;;;;;;6209074;22;47184;-88
2023/11/07 06:45:11;;;;;;;;;0.00;0.00;;;;;;;;6209151;22;45258;-88
2023/11/07 06:47:37;;;;;;;;;0.00;0.00;;;;;;;;6209576;22;45730;-88
2023/11/07 06:50:02;;;;;;;;;0.00;0.00;;;;;;;;6210903;22;45293;-88
2023/11/07 06:52:27;;;;;;;;;0.00;0.00;;;;;;;;6207559;22;47163;-84
2023/11/07 06:54:53;;;;;;;;;0.00;0.00;;;;;;;;6208470;22;45309;-84
2023/11/07 06:57:18;;;;;;;;;0.00;0.00;;;;;;;;6226418;22;45330;-85
2023/11/07 06:59:46;;;;;;;;;0.00;0.00;;;;;;;;6238941;22;45354;-84
2023/11/07 07:02:11;;;;;;;;;0.00;0.00;;;;;;;;6210577;22;47097;-83
2023/11/07 07:04:36;;;;;;;;;0.00;0.00;;;;;;;;6237635;22;45386;-84
2023/11/07 07:07:02;;;;;;;;;0.00;0.00;;;;;;;;6211327;22;45217;-84
2023/11/07 07:09:27;;;;;;;;;0.00;0.00;;;;;;;;6238849;22;45650;-83
2023/11/07 07:11:53;;;;;;;;;0.00;0.00;;;;;;;;6238340;22;46003;-82
2023/11/07 07:14:19;;;;;;;;;9.00;9.00;;;;;;;;6238324;22;45631;-83
2023/11/07 07:16:44;;;;;;;;;0.00;0.00;;;;;;;;6238592;22;45790;-83
2023/11/07 07:19:15;;;;;;;;;0.00;0.00;;;;;;;;6236936;22;45537;-82
2023/11/07 07:21:40;;;;;;;;;0.00;0.00;;;;;;;;6237772;22;46426;-83
2023/11/07 07:24:15;;;;;;;;;0.00;0.00;;;;;;;;6238274;22;45326;-83
2023/11/07 07:26:41;;;;;;;;;0.00;0.00;;;;;;;;6239296;22;45425;-81
2023/11/07 07:29:06;;;;;;;;;0.50;0.50;;;;;;;;6239533;22;45461;-81
2023/11/07 07:31:35;;;;;;;;;0.00;0.00;;;;;;;;6239648;22;46485;-82
2023/11/07 07:34:00;;;;;;;;;0.00;0.00;;;;;;;;6238798;22;45255;-82
2023/11/07 07:36:25;;;;;;;;;0.00;0.00;;;;;;;;6239929;22;45311;-82
2023/11/07 07:38:52;;;;;;;;;0.00;0.00;;;;;;;;6240184;22;45465;-82
2023/11/07 07:41:17;;;;;;;;;0.00;0.00;;;;;;;;6240121;22;46790;-82
2023/11/07 07:43:44;;;;;;;;;0.00;0.00;;;;;;;;6239945;22;45395;-85
2023/11/07 07:46:10;;;;;;;;;0.00;0.00;;;;;;;;6239157;22;45250;-81
2023/11/07 07:48:35;;;;;;;;;0.00;0.00;;;;;;;;6239114;22;45254;-83
2023/11/07 07:51:13;;;;;;;;;0.00;0.00;;;;;;;;6240173;22;45414;-86
2023/11/07 07:53:40;;;;;;;;;0.00;0.00;;;;;;;;6213000;22;45564;-87
2023/11/07 07:56:13;;;;;;;;;0.00;0.00;;;;;;;;6212583;22;45360;-86
2023/11/07 07:58:40;;;;;;;;;0.00;0.00;;;;;;;;6240264;22;45338;-84
2023/11/07 08:01:09;;;;;;;;;0.00;0.00;;;;;;;;6238151;22;46208;-85
2023/11/07 08:03:35;;;;;;;;;0.00;0.00;;;;;;;;6223043;22;45535;-84
2023/11/07 08:06:00;;;;;;;;;0.00;0.00;;;;;;;;6233376;22;45390;-84
2023/11/07 08:08:25;;;;;;;;;0.00;0.00;;;;;;;;6212215;22;45510;-85
2023/11/07 08:10:57;;;;;;;;;0.00;0.00;;;;;;;;6206544;22;47004;-82
2023/11/07 08:13:22;;;;;;;;;0.00;0.00;;;;;;;;6229961;22;45412;-84
2023/11/07 08:15:49;;;;;;;;;0.00;0.00;;;;;;;;6209378;22;45611;-82
2023/11/07 08:18:17;;;;;;;;;0.00;0.00;;;;;;;;6235929;22;45565;-82
2023/11/07 08:20:42;;;;;;;;;0.00;0.00;;;;;;;;6236772;22;46587;-83
2023/11/07 08:23:08;;;;;;;;;0.00;0.00;;;;;;;;6237311;22;45195;-82
2023/11/07 08:25:33;;;;;;;;;0.00;0.00;;;;;;;;6237005;22;45291;-84
2023/11/07 08:27:59;;;;;;;;;0.00;0.00;;;;;;;;6237763;22;45434;-86
2023/11/07 08:30:24;;;;;;;;;0.00;0.00;;;;;;;;6209967;22;46547;-86
2023/11/07 08:32:50;;;;;;;;;0.00;0.00;;;;;;;;6237189;22;45284;-85
2023/11/07 08:35:18;;;;;;;;;0.00;0.00;;;;;;;;6238004;22;45330;-86
2023/11/07 08:37:47;;;;;;;;;0.75;0.75;;;;;;;;6238121;22;45788;-85
2023/11/07 08:40:13;;;;;;;;;0.00;0.00;;;;;;;;6237216;22;46249;-85
2023/11/07 08:42:43;;;;;;;;;0.00;0.00;;;;;;;;6210758;22;45642;-86
2023/11/07 08:45:21;;;;;;;;;0.00;0.00;;;;;;;;6238263;22;45799;-87
2023/11/07 08:47:47;;;;;;;;;0.00;0.00;;;;;;;;6241141;22;45347;-86
2023/11/07 08:50:13;;;;;;;;;0.00;0.00;;;;;;;;6242031;22;46446;-86
2023/11/07 08:52:39;;;;;;;;;0.00;0.00;;;;;;;;6241489;22;45194;-86
2023/11/07 08:55:05;;;;;;;;;0.00;0.00;;;;;;;;6241690;22;45300;-86
2023/11/07 08:57:31;;;;;;;;;0.00;0.00;;;;;;;;6240597;22;45576;-86
2023/11/07 08:59:57;;;;;;;;;0.00;0.00;;;;;;;;6241043;22;46077;-87
2023/11/07 09:02:22;;;;;;;;;0.00;0.00;;;;;;;;6242646;22;45361;-88
2023/11/07 09:04:48;;;;;;;;;0.00;0.00;;;;;;;;6242119;22;45302;-86
2023/11/07 09:07:16;;;;;;;;;0.00;0.00;;;;;;;;6215359;22;45924;-86
2023/11/07 09:09:41;;;;;;;;;0.00;0.00;;;;;;;;6242212;22;46508;-86
2023/11/07 09:12:07;;;;;;;;;0.00;0.00;;;;;;;;6242042;22;45316;-86
2023/11/07 09:14:33;;;;;;;;;0.00;0.00;;;;;;;;6214603;22;45368;-85
2023/11/07 09:16:58;;;;;;;;;0.00;0.00;;;;;;;;6215029;22;45173;-85
2023/11/07 09:19:26;;;;;;;;;0.00;0.00;;;;;;;;6241841;22;45354;-86
2023/11/07 09:21:52;;;;;;;;;0.00;0.00;;;;;;;;6241895;22;45360;-87
2023/11/07 09:24:18;;;;;;;;;0.00;0.00;;;;;;;;6242273;22;45493;-87
2023/11/07 09:26:43;;;;;;;;;0.00;0.00;;;;;;;;6241354;22;45330;-84
2023/11/07 09:29:08;;;;;;;;;0.00;0.00;;;;;;;;6213699;22;46142;-86
2023/11/07 09:31:34;;;;;;;;;0.00;0.00;;;;;;;;6242028;22;45361;-85
2023/11/07 09:33:59;;;;;;;;;1.00;0.00;;;;;;;;6241862;22;45323;-85
2023/11/07 09:36:25;;;;;;;;;0.00;0.00;;;;;;;;6214759;22;45307;-84
2023/11/07 09:38:51;;;;;;;;;0.00;0.00;;;;;;;;6241730;22;46306;-86
2023/11/07 09:41:18;;;;;;;;;0.00;0.00;;;;;;;;6242018;22;45272;-86
2023/11/07 09:43:45;;;;;;;;;0.00;0.00;;;;;;;;6214357;22;45299;-86
2023/11/07 09:46:10;;;;;;;;;0.00;0.00;;;;;;;;6241837;22;45327;-86
2023/11/07 09:48:35;;;;;;;;;0.00;0.00;;;;;;;;6241182;22;46361;-84
2023/11/07 09:51:01;;;;;;;;;0.00;0.00;;;;;;;;6242316;22;45278;-85
2023/11/07 09:53:29;;;;;;;;;0.00;0.00;;;;;;;;6241804;22;45307;-85
2023/11/07 09:55:55;;;;;;;;;0.00;0.00;;;;;;;;6241788;22;45429;-82
2023/11/07 09:58:24;;;;;;;;;0.00;0.00;;;;;;;;6240656;22;45755;-84
2023/11/07 10:00:52;;;;;;;;;0.00;0.00;;;;;;;;6240838;22;45326;-87
2023/11/07 10:03:17;;;;;;;;;0.00;0.00;;;;;;;;6241828;22;45910;-85
2023/11/07 10:05:45;;;;;;;;;0.00;0.00;;;;;;;;6214619;22;45411;-84
2023/11/07 10:08:13;;;;;;;;;0.00;0.00;;;;;;;;6214166;22;47238;-86
2023/11/07 10:10:42;;;;;;;;;0.00;0.00;;;;;;;;6241964;22;45281;-87
2023/11/07 10:13:08;;;;;;;;;0.00;0.00;;;;;;;;6241301;22;45563;-85
2023/11/07 10:15:33;;;;;;;;;0.00;0.00;;;;;;;;6214636;22;45365;-85
2023/11/07 10:17:58;;;;;;;;;0.00;0.00;;;;;;;;6241876;22;46132;-87
2023/11/07 10:20:24;;;;;;;;;0.00;0.00;;;;;;;;6241363;22;45295;-86
2023/11/07 10:22:49;;;;;;;;;0.00;0.00;;;;;;;;6242012;22;45344;-86
2023/11/07 10:25:28;;;;;;;;;0.00;0.00;;;;;;;;6241989;22;45406;-84
2023/11/07 10:27:54;;;;;;;;;0.00;0.00;;;;;;;;6240458;22;46461;-86
2023/11/07 10:30:20;;;;;;;;;0.00;0.00;;;;;;;;6213873;22;45428;-86
2023/11/07 10:32:45;;;;;;;;;0.00;0.00;;;;;;;;6240871;22;45259;-87
2023/11/07 10:35:11;;;;;;;;;0.00;0.00;;;;;;;;6239031;22;45414;-88
2023/11/07 10:37:37;;;;;;;;;0.00;0.00;;;;;;;;6238724;22;47368;-88
2023/11/07 10:40:04;;;;;;;;;0.00;0.00;;;;;;;;6238891;22;45438;-86
2023/11/07 10:42:34;;;;;;;;;0.25;0.25;;;;;;;;6238121;22;45414;-87
2023/11/07 10:45:01;;;;;;;;;0.00;0.00;;;;;;;;6240284;22;45601;-87
2023/11/07 10:47:37;;;;;;;;;0.00;0.00;;;;;;;;6240304;22;47189;-88
2023/11/07 10:50:03;;;;;;;;;0.00;0.00;;;;;;;;6213247;22;45608;-88
2023/11/07 10:52:28;;;;;;;;;0.00;0.00;;;;;;;;6240196;22;45330;-83
2023/11/07 10:54:54;;;;;;;;;0.00;0.00;;;;;;;;6243657;22;45315;-83
2023/11/07 10:57:22;;;;;;;;;0.00;0.00;;;;;;;;6243754;22;46945;-83
2023/11/07 10:59:48;;;;;;;;;0.00;0.00;;;;;;;;6240567;22;45315;-84
2023/11/07 11:02:15;;;;;;;;;0.00;0.00;;;;;;;;6241461;22;45247;-85
2023/11/07 11:04:42;;;;;;;;;0.00;0.00;;;;;;;;6241531;22;45187;-84
2023/11/07 11:07:07;;;;;;;;;0.00;0.00;;;;;;;;6241853;22;46237;-86
2023/11/07 11:09:34;;;;;;;;;0.00;0.00;;;;;;;;6241054;22;45406;-85
2023/11/07 11:12:01;;;;;;;;;0.00;0.00;;;;;;;;6240110;22;45282;-85
2023/11/07 11:14:26;;;;;;;;;0.00;0.00;;;;;;;;6213938;22;45489;-87
2023/11/07 11:16:55;;;;;;;;;0.00;0.00;;;;;;;;6240446;22;45346;-86
2023/11/07 11:19:42;;;;;;;;;0.00;0.00;;;;;;;;6240973;22;45234;-82
2023/11/07 11:22:22;;;;;;;;;0.00;0.00;;;;;;;;6240843;22;45720;-83
2023/11/07 11:24:58;;;;;;;;;0.00;0.00;;;;;;;;6241125;22;45501;-84
2023/11/07 11:27:29;;;;;;;;;0.00;0.00;;;;;;;;6241769;22;46352;-84
2023/11/07 11:29:55;;;;;;;;;0.00;0.00;;;;;;;;6240926;22;45357;-85
2023/11/07 11:32:27;;;;;;;;;0.00;0.00;;;;;;;;6241516;22;45287;-87
2023/11/07 11:34:57;;;;;;;;;0.00;0.00;;;;;;;;6241813;22;45397;-87
2023/11/07 11:37:23;;;;;;;;;0.00;0.00;;;;;;;;6240317;22;45329;-86
2023/11/07 11:39:49;;;;;;;;;0.00;0.00;;;;;;;;6240663;22;45240;-87
2023/11/07 11:42:21;;;;;;;;;0.00;0.00;;;;;;;;6241089;22;45312;-86
2023/11/07 11:45:07;;;;;;;;;1.50;1.50;;;;;;;;6241034;22;45275;-85
2023/11/07 11:47:53;;;;;;;;;0.00;0.00;;;;;;;;6241166;22;46206;-88
2023/11/07 11:50:19;;;;;;;;;0.00;0.00;;;;;;;;6215091;22;45217;-89
2023/11/07 11:52:45;;;;;;;;;0.00;0.00;;;;;;;;6242805;22;45162;-88
2023/11/07 11:55:12;;;;;;;;;0.00;0.00;;;;;;;;6241412;22;45165;-86
2023/11/07 11:58:11;;;;;;;;;0.00;0.00;;;;;;;;6242839;22;46591;-87
2023/11/07 12:00:38;;;;;;;;;0.00;0.00;;;;;;;;6065088;23;45572;-87
2023/11/07 12:03:05;;;;;;;;;0.00;0.00;;;;;;;;6090036;23;45309;-89
2023/11/07 12:05:30;;;;;;;;;0.00;0.00;;;;;;;;6090364;23;45356;-88
2023/11/07 12:08:15;;;;;;;;;0.00;0.00;;;;;;;;6090365;23;45263;-87
2023/11/07 12:10:54;;;;;;;;;0.00;0.00;;;;;;;;6065199;23;45281;-86
2023/11/07 12:13:22;;;;;;;;;0.00;0.00;;;;;;;;6088659;23;45382;-88
2023/11/07 12:15:48;;;;;;;;;0.00;0.00;;;;;;;;6090103;23;45262;-90
2023/11/07 12:18:15;;;;;;;;;0.00;0.00;;;;;;;;6065035;23;46869;-87
2023/11/07 12:20:41;;;;;;;;;0.00;0.00;;;;;;;;6089862;23;45253;-88
2023/11/07 12:23:11;;;;;;;;;1.00;1.00;;;;;;;;6090070;23;45368;-87
2023/11/07 12:25:47;;;;;;;;;0.00;0.00;;;;;;;;6089443;23;45369;-87
2023/11/07 12:28:12;;;;;;;;;0.00;0.00;;;;;;;;6089754;23;45464;-87
2023/11/07 12:30:39;;;;;;;;;0.00;0.00;;;;;;;;6089123;23;45269;-88
2023/11/07 12:33:11;;;;;;;;;0.00;0.00;;;;;;;;6089536;23;45501;-87
2023/11/07 12:35:37;;;;;;;;;0.00;0.00;;;;;;;;6128555;22;45569;-88
2023/11/07 12:38:06;;;;;;;;;0.00;0.00;;;;;;;;6241786;22;45240;-86
2023/11/07 12:40:33;;;;;;;;;0.00;0.00;;;;;;;;6243557;22;45248;-84
2023/11/07 12:42:58;;;;;;;;;0.00;0.00;;;;;;;;6241031;22;45308;-89
2023/11/07 12:45:33;;;;;;;;;0.00;0.00;;;;;;;;6214444;22;45350;-86
2023/11/07 12:48:00;;;;;;;;;0.00;0.00;;;;;;;;6242032;22;46176;-87
2023/11/07 12:50:31;;;;;;;;;2.25;2.25;;;;;;;;6241549;22;45438;-87
2023/11/07 12:52:57;;;;;;;;;0.00;0.00;;;;;;;;6241312;22;45533;-87
2023/11/07 12:55:26;;;;;;;;;0.00;0.00;;;;;;;;6241550;22;45379;-88
2023/11/07 12:57:51;;;;;;;;;0.00;0.00;;;;;;;;6242489;22;45618;-87
2023/11/07 13:00:18;;;;;;;;;0.00;0.00;;;;;;;;6241680;22;45266;-87
2023/11/07 13:02:44;;;;;;;;;0.00;0.00;;;;;;;;6214668;22;45299;-87
2023/11/07 13:05:13;;;;;;;;;0.00;0.00;;;;;;;;6242425;22;45342;-87
2023/11/07 13:07:38;;;;;;;;;0.00;0.00;;;;;;;;6241122;22;46212;-86
2023/11/07 13:10:11;;;;;;;;;0.00;0.00;;;;;;;;6214989;22;45614;-87
2023/11/07 13:12:37;;;;;;;;;0.00;0.00;;;;;;;;6242937;22;45333;-93
2023/11/07 13:15:02;;;;;;;;;0.00;0.00;;;;;;;;6242013;22;45274;-87
2023/11/07 13:17:28;;;;;;;;;0.00;0.00;;;;;;;;6214720;22;47890;-85
2023/11/07 13:19:55;;;;;;;;;0.00;0.00;;;;;;;;6242558;22;45415;-91
2023/11/07 13:22:20;;;;;;;;;0.00;0.00;;;;;;;;6241186;22;45393;-86
2023/11/07 13:24:47;;;;;;;;;0.00;0.00;;;;;;;;6214983;22;45283;-86
2023/11/07 13:27:13;;;;;;;;;0.00;0.00;;;;;;;;6213792;22;48077;-87
2023/11/07 13:29:40;;;;;;;;;0.00;0.00;;;;;;;;6214529;22;45268;-86
2023/11/07 13:32:05;;;;;;;;;0.00;0.00;;;;;;;;6240995;22;45343;-86
2023/11/07 13:34:32;;;;;;;;;0.00;0.00;;;;;;;;6242358;22;45260;-86
2023/11/07 13:36:57;;;;;;;;;0.00;0.00;;;;;;;;6242195;22;45496;-85
2023/11/07 13:39:23;;;;;;;;;0.00;0.00;;;;;;;;6242041;22;45385;-86
2023/11/07 13:41:49;;;;;;;;;0.00;0.00;;;;;;;;6241039;22;45259;-87
2023/11/07 13:44:14;;;;;;;;;0.25;0.25;;;;;;;;6215169;22;45358;-87
2023/11/07 13:46:40;;;;;;;;;0.00;0.00;;;;;;;;6241255;22;46791;-84
2023/11/07 13:49:08;;;;;;;;;0.00;0.00;;;;;;;;6241384;22;45578;-84
2023/11/07 13:51:34;;;;;;;;;0.00;0.00;;;;;;;;6241488;22;45233;-86
2023/11/07 13:53:59;;;;;;;;;0.00;0.00;;;;;;;;6242454;22;45335;-85
2023/11/07 13:56:25;;;;;;;;;0.00;0.00;;;;;;;;6209547;22;47023;-87
2023/11/07 13:58:53;;;;;;;;;0.00;0.00;;;;;;;;6209875;22;45690;-87
2023/11/07 14:01:18;;;;;;;;;0.00;0.00;;;;;;;;6211190;22;45302;-86
2023/11/07 14:03:44;;;;;;;;;0.00;0.00;;;;;;;;6210494;22;45329;-85
2023/11/07 14:06:09;;;;;;;;;0.00;0.00;;;;;;;;6209294;22;46461;-84
2023/11/07 14:08:35;;;;;;;;;0.00;0.00;;;;;;;;6210654;22;45318;-85
2023/11/07 14:11:02;;;;;;;;;0.00;0.00;;;;;;;;6210123;22;45428;-85
2023/11/07 14:13:27;;;;;;;;;0.00;0.00;;;;;;;;6210974;22;45543;-85
2023/11/07 14:15:52;;;;;;;;;0.00;0.00;;;;;;;;6210826;22;45156;-85
2023/11/07 14:18:18;;;;;;;;;0.00;0.00;;;;;;;;6210862;22;45159;-86
2023/11/07 14:20:51;;;;;;;;;0.00;0.00;;;;;;;;6210403;22;45182;-86
2023/11/07 14:23:16;;;;;;;;;0.00;0.00;;;;;;;;6211429;22;45306;-85
2023/11/07 14:25:43;;;;;;;;;0.00;0.00;;;;;;;;6208647;22;47428;-84
2023/11/07 14:28:10;;;;;;;;;0.00;0.00;;;;;;;;6210489;22;45285;-84
2023/11/07 14:30:43;;;;;;;;;0.00;0.00;;;;;;;;6210970;22;45468;-86
2023/11/07 14:33:08;;;;;;;;;0.00;0.00;;;;;;;;6211745;22;45350;-88
2023/11/07 14:35:34;;;;;;;;;0.00;0.00;;;;;;;;6211142;22;47050;-85
2023/11/07 14:38:00;;;;;;;;;0.00;0.00;;;;;;;;6211949;22;45327;-85
2023/11/07 14:40:25;;;;;;;;;3.00;3.00;;;;;;;;6212424;22;45183;-84